Time;durP1;ratioP1;P1;durP2;ratioP2;P2;SDS_P1;SDS_P2;PMS_P1;PMS_P2;Temp;Humidity;BMP_temperature;BMP_pressure;BME280_temperature;BME280_humidity;BME280_pressure;Samples;Min_cycle;Max_cycle;Signal;HPM_P1;HPM_P2
2024/04/07 00:02:16;;;;;;;30.70;15.18;;;;;;;2.88;62.63;99996.03;4901828;29;20072;-74
2024/04/07 00:04:42;;;;;;;28.92;13.63;;;;;;;2.87;62.85;99973.75;4902811;29;20048;-74
2024/04/07 00:07:08;;;;;;;28.50;14.48;;;;;;;2.96;62.88;99973.09;4886295;29;20052;-74
2024/04/07 00:09:37;;;;;;;31.08;14.77;;;;;;;3.02;63.00;99973.25;4887581;29;20044;-73
2024/04/07 00:12:04;;;;;;;26.40;13.70;;;;;;;3.19;62.99;99989.09;4870284;29;20043;-73
2024/04/07 00:14:31;;;;;;;24.38;13.95;;;;;;;3.20;63.32;99977.94;4888761;29;20507;-74
2024/04/07 00:16:56;;;;;;;27.23;12.98;;;;;;;3.32;63.53;99997.97;4887706;29;20096;-71
2024/04/07 00:19:24;;;;;;;26.35;14.10;;;;;;;3.25;63.70;99975.50;4859815;29;20045;-72
2024/04/07 00:21:50;;;;;;;27.23;14.15;;;;;;;3.39;63.35;99999.00;4884642;29;20043;-73
2024/04/07 00:24:16;;;;;;;25.20;14.07;;;;;;;3.42;63.74;99991.34;4887831;29;20056;-73
2024/04/07 00:26:42;;;;;;;26.25;14.40;;;;;;;3.44;63.58;99987.09;4903304;29;20101;-72
2024/04/07 00:29:08;;;;;;;25.50;14.27;;;;;;;3.59;64.08;100002.91;4871901;29;20054;-75
2024/04/07 00:31:34;;;;;;;28.70;13.43;;;;;;;3.70;63.62;100016.00;4887100;29;20047;-70
2024/04/07 00:34:00;;;;;;;26.98;14.07;;;;;;;3.72;63.40;100018.59;4903045;29;20054;-81
2024/04/07 00:36:26;;;;;;;23.42;13.05;;;;;;;3.67;63.89;100020.19;4885119;29;20051;-73
2024/04/07 00:38:52;;;;;;;27.67;14.30;;;;;;;3.71;63.77;100024.59;4884456;29;20057;-77
2024/04/07 00:41:19;;;;;;;25.42;14.05;;;;;;;3.52;63.67;99998.44;4901976;29;20908;-72
2024/04/07 00:43:45;;;;;;;25.48;14.30;;;;;;;3.66;62.85;100021.03;4873659;29;20040;-72
2024/04/07 00:46:11;;;;;;;29.58;14.45;;;;;;;3.50;63.79;100010.41;4885588;29;20045;-71
2024/04/07 00:48:37;;;;;;;24.20;14.05;;;;;;;3.48;64.03;99983.75;4886037;29;20037;-74
2024/04/07 00:51:04;;;;;;;29.63;14.35;;;;;;;3.72;63.32;100023.75;4885886;29;20037;-72
2024/04/07 00:53:31;;;;;;;26.35;14.60;;;;;;;3.72;63.94;100016.03;4855688;29;20112;-73
2024/04/07 00:55:57;;;;;;;29.02;14.85;;;;;;;3.75;63.65;100000.66;4884222;29;20576;-71
2024/04/07 00:58:23;;;;;;;30.95;14.90;;;;;;;3.77;63.80;100011.84;4883468;29;20044;-73
2024/04/07 01:00:49;;;;;;;25.75;14.38;;;;;;;3.76;63.26;99998.09;4901195;29;20058;-72
2024/04/07 01:03:17;;;;;;;28.73;14.20;;;;;;;3.86;63.63;100001.75;4885592;29;20072;-72
2024/04/07 01:05:45;;;;;;;29.45;15.15;;;;;;;3.79;64.01;99987.03;4887510;29;20135;-73
2024/04/07 01:08:13;;;;;;;28.55;14.00;;;;;;;3.88;64.29;99994.06;4901478;29;20036;-74
2024/04/07 01:10:40;;;;;;;25.10;13.20;;;;;;;3.94;64.16;99999.38;4900107;29;20055;-72
2024/04/07 01:13:06;;;;;;;26.27;14.10;;;;;;;3.87;64.19;99976.88;4885105;29;20483;-73
2024/04/07 01:15:35;;;;;;;26.35;13.48;;;;;;;3.99;63.58;99989.16;4899776;29;20089;-72
2024/04/07 01:18:05;;;;;;;26.48;13.30;;;;;;;4.01;64.44;99985.75;4887436;29;20170;-75
2024/04/07 01:20:33;;;;;;;25.63;14.05;;;;;;;3.96;64.37;99973.63;4858649;29;20045;-73
2024/04/07 01:23:00;;;;;;;28.20;13.93;;;;;;;4.03;64.07;99983.22;4884102;29;20047;-70
2024/04/07 01:25:27;;;;;;;24.02;13.32;;;;;;;4.13;64.24;99987.72;4870868;29;20049;-73
2024/04/07 01:27:54;;;;;;;26.98;14.00;;;;;;;4.15;64.22;99973.16;4885111;29;20527;-74
2024/04/07 01:30:21;;;;;;;26.27;13.82;;;;;;;4.29;64.14;99988.91;4901039;29;20083;-74
2024/04/07 01:32:48;;;;;;;30.20;14.73;;;;;;;4.20;64.63;99970.66;4885805;29;20048;-72
2024/04/07 01:35:14;;;;;;;29.60;14.15;;;;;;;4.32;63.31;99994.13;4885205;29;20083;-74
2024/04/07 01:37:41;;;;;;;22.70;13.05;;;;;;;4.27;64.80;99982.84;4885395;29;20041;-73
2024/04/07 01:40:11;;;;;;;29.23;14.95;;;;;;;4.36;64.10;99995.91;4867555;29;20111;-73
2024/04/07 01:42:39;;;;;;;29.33;14.18;;;;;;;4.28;63.38;99991.47;4886182;29;20048;-74
2024/04/07 01:45:09;;;;;;;28.30;13.93;;;;;;;4.24;63.73;99979.34;4886653;29;20075;-73
2024/04/07 01:47:37;;;;;;;28.33;14.27;;;;;;;4.30;64.54;99998.38;4869994;29;20040;-74
2024/04/07 01:50:05;;;;;;;25.42;14.43;;;;;;;4.28;64.32;99994.88;4870775;29;20296;-73
2024/04/07 01:52:32;;;;;;;26.15;13.50;;;;;;;4.32;64.37;99988.97;4873061;29;20515;-74
2024/04/07 01:54:58;;;;;;;26.75;13.63;;;;;;;4.36;63.94;100001.06;4884540;29;20080;-73
2024/04/07 01:57:25;;;;;;;25.25;12.82;;;;;;;4.37;64.42;99978.75;4868614;29;20473;-75
2024/04/07 01:59:51;;;;;;;27.63;15.25;;;;;;;4.52;64.19;99994.47;4899147;29;20100;-75
2024/04/07 02:02:19;;;;;;;33.03;14.15;;;;;;;4.40;63.91;99972.78;4869363;29;20064;-74
2024/04/07 02:04:47;;;;;;;26.35;14.20;;;;;;;4.39;63.87;99971.06;4887369;29;20044;-74
2024/04/07 02:07:14;;;;;;;26.98;15.15;;;;;;;4.40;63.73;99983.94;4884093;29;20048;-75
2024/04/07 02:09:41;;;;;;;26.00;14.05;;;;;;;4.46;64.45;99993.50;4885623;29;20048;-75
2024/04/07 02:12:07;;;;;;;31.00;14.43;;;;;;;4.50;64.05;99991.03;4868555;29;20048;-73
2024/04/07 02:14:33;;;;;;;28.73;14.27;;;;;;;4.39;63.45;99984.78;4885627;29;20072;-74
2024/04/07 02:16:59;;;;;;;24.75;13.77;;;;;;;4.48;63.99;99996.97;4867131;29;20048;-75
2024/04/07 02:19:26;;;;;;;30.17;14.20;;;;;;;4.46;63.95;99996.09;4899045;29;20484;-74
2024/04/07 02:21:52;;;;;;;26.67;14.27;;;;;;;4.43;64.32;99993.44;4868526;29;20048;-74
2024/04/07 02:24:18;;;;;;;25.70;13.85;;;;;;;4.45;63.38;100002.06;4884091;29;20052;-75
2024/04/07 02:26:46;;;;;;;30.52;14.40;;;;;;;4.28;64.23;99974.28;4884567;29;20138;-75
2024/04/07 02:29:14;;;;;;;32.38;13.70;;;;;;;4.53;64.23;100022.00;4884839;29;20407;-74
2024/04/07 02:31:41;;;;;;;27.17;14.13;;;;;;;4.45;64.08;100000.38;4884192;29;20045;-75
2024/04/07 02:34:08;;;;;;;27.23;14.77;;;;;;;4.45;63.34;100009.81;4884759;29;20508;-75
2024/04/07 02:36:34;;;;;;;26.55;13.85;;;;;;;4.50;64.15;100023.66;4886949;29;20044;-75
2024/04/07 02:39:02;;;;;;;31.73;15.05;;;;;;;4.43;64.16;100019.22;4884191;29;20091;-74
2024/04/07 02:41:28;;;;;;;35.70;14.40;;;;;;;4.32;63.71;100009.56;4883997;29;20048;-74
2024/04/07 02:43:54;;;;;;;30.42;14.70;;;;;;;4.22;63.85;99985.34;4883005;29;20562;-75
2024/04/07 02:49:05;;;;;;;33.67;14.82;;;;;;;4.46;63.97;100014.13;4884358;29;20043;-74
2024/04/07 02:51:31;;;;;;;29.52;14.40;;;;;;;4.40;63.58;100009.72;4885134;29;20532;-74
2024/04/07 02:53:57;;;;;;;32.75;14.10;;;;;;;4.31;63.18;99994.97;4881561;29;20040;-72
2024/04/07 02:56:24;;;;;;;24.63;13.55;;;;;;;4.21;63.46;99973.28;4883104;29;20056;-72
2024/04/07 02:58:50;;;;;;;32.40;13.50;;;;;;;4.44;63.97;100011.53;4881635;29;20055;-73
2024/04/07 03:01:16;;;;;;;29.25;14.90;;;;;;;4.57;63.00;100025.53;4865510;29;20040;-73
2024/04/07 03:03:45;;;;;;;27.83;14.48;;;;;;;4.59;62.50;100020.38;4841229;29;20059;-71
2024/04/07 03:06:12;;;;;;;32.55;14.85;;;;;;;4.50;63.18;100014.22;4882255;29;20049;-73
2024/04/07 03:08:38;;;;;;;27.95;13.90;;;;;;;4.37;63.26;99983.88;4884564;29;20076;-74
2024/04/07 03:11:07;;;;;;;26.13;13.70;;;;;;;4.61;63.58;100008.41;4872108;29;20055;-74
2024/04/07 03:13:34;;;;;;;25.45;13.00;;;;;;;4.80;63.76;100030.25;4852949;29;20108;-75
2024/04/07 03:16:00;;;;;;;23.33;13.43;;;;;;;4.79;63.40;100023.34;4883035;29;20120;-74
2024/04/07 03:18:27;;;;;;;25.23;13.90;;;;;;;4.95;63.77;100034.81;4854207;29;20045;-75
2024/04/07 03:20:54;;;;;;;27.48;14.68;;;;;;;5.02;63.56;100039.22;4881020;29;20123;-74
2024/04/07 03:23:20;;;;;;;27.23;14.25;;;;;;;4.74;63.14;99983.72;4897829;29;20049;-75
2024/04/07 03:25:46;;;;;;;25.40;14.02;;;;;;;4.98;63.77;100014.19;4884453;29;20048;-72
2024/04/07 03:28:12;;;;;;;25.70;13.57;;;;;;;5.20;63.92;100046.41;4886750;29;20052;-76
2024/04/07 03:30:38;;;;;;;29.27;13.60;;;;;;;5.23;63.67;100041.31;4899214;29;20139;-73
2024/04/07 03:33:04;;;;;;;25.25;14.20;;;;;;;5.04;63.53;99992.84;4869771;29;20056;-74
2024/04/07 03:35:32;;;;;;;24.33;13.73;;;;;;;5.30;63.90;100026.78;4883501;29;20048;-73
2024/04/07 03:37:59;;;;;;;27.35;13.70;;;;;;;5.55;63.76;100043.53;4867442;29;20083;-75
2024/04/07 03:40:26;;;;;;;28.02;13.85;;;;;;;5.80;63.43;100054.22;4883886;29;20075;-74
2024/04/07 03:42:54;;;;;;;26.48;14.75;;;;;;;5.83;63.43;100056.84;4885990;29;20072;-74
2024/04/07 03:45:20;;;;;;;26.02;13.70;;;;;;;5.94;62.99;100044.09;4886098;29;20048;-73
2024/04/07 03:47:48;;;;;;;26.98;13.68;;;;;;;6.10;63.43;100055.53;4884032;29;20064;-73
2024/04/07 03:50:14;;;;;;;24.35;13.45;;;;;;;6.36;63.07;100069.66;4868172;29;20146;-73
2024/04/07 03:52:41;;;;;;;22.73;13.60;;;;;;;6.33;63.11;100039.47;4869228;29;20135;-73
2024/04/07 03:55:07;;;;;;;26.50;14.57;;;;;;;6.53;62.42;100065.53;4874633;29;20055;-74
2024/04/07 03:57:33;;;;;;;24.05;13.27;;;;;;;6.62;62.13;100070.84;4870274;29;20041;-74
2024/04/07 03:59:59;;;;;;;27.92;14.40;;;;;;;6.70;61.97;100076.09;4888532;29;20139;-74
2024/04/07 04:02:29;;;;;;;22.23;13.82;;;;;;;6.80;61.91;100091.72;4875512;29;20123;-75
2024/04/07 04:04:56;;;;;;;25.92;14.18;;;;;;;6.84;61.98;100099.53;4889103;29;20093;-74
2024/04/07 04:07:26;;;;;;;26.38;13.90;;;;;;;6.92;61.97;100092.72;4885519;29;20167;-75
2024/04/07 04:09:55;;;;;;;24.45;13.63;;;;;;;7.06;62.02;100086.81;4885553;29;20451;-75
2024/04/07 04:12:23;;;;;;;23.05;13.02;;;;;;;7.27;61.70;100086.19;4901228;29;20043;-74
2024/04/07 04:14:53;;;;;;;30.23;14.73;;;;;;;7.45;61.69;100089.78;4870310;29;20083;-77
2024/04/07 04:17:20;;;;;;;27.95;13.82;;;;;;;7.65;61.21;100095.09;4884051;29;20499;-75
2024/04/07 04:19:46;;;;;;;28.08;14.25;;;;;;;7.70;60.56;100075.28;4899879;29;20055;-74
2024/04/07 04:22:13;;;;;;;24.98;14.00;;;;;;;8.00;60.74;100097.09;4884861;29;20511;-74
2024/04/07 04:24:39;;;;;;;25.50;14.30;;;;;;;8.10;60.23;100085.91;4883496;29;20051;-75
2024/04/07 04:27:06;;;;;;;25.15;14.75;;;;;;;8.14;59.86;100090.25;4856684;29;20580;-73
2024/04/07 04:29:35;;;;;;;27.08;14.43;;;;;;;8.25;60.06;100087.72;4886587;29;20480;-73
2024/04/07 04:32:02;;;;;;;26.85;14.85;;;;;;;8.59;59.74;100112.97;4869509;29;20053;-74
2024/04/07 04:34:31;;;;;;;25.60;13.85;;;;;;;8.83;59.39;100109.59;4888816;29;20096;-74
2024/04/07 04:36:57;;;;;;;24.27;13.77;;;;;;;9.03;59.24;100114.84;4900986;29;20044;-74
2024/04/07 04:39:24;;;;;;;24.27;14.13;;;;;;;9.12;58.60;100114.00;4887340;29;20120;-72
2024/04/07 04:41:50;;;;;;;23.10;13.48;;;;;;;9.30;58.54;100120.97;4884694;29;20046;-73
2024/04/07 04:44:17;;;;;;;24.83;14.30;;;;;;;9.30;58.02;100109.69;4870853;29;20041;-74
2024/04/07 04:46:45;;;;;;;24.85;14.20;;;;;;;9.42;58.06;100099.34;4888036;29;20569;-72
2024/04/07 04:49:12;;;;;;;34.17;19.40;;;;;;;9.55;57.58;100118.41;4886677;29;20097;-73
2024/04/07 04:51:38;;;;;;;26.45;14.85;;;;;;;9.48;57.01;100091.56;4872510;29;20493;-72
2024/04/07 04:54:04;;;;;;;27.27;14.00;;;;;;;9.65;57.53;100108.88;4884399;29;20128;-73
2024/04/07 04:56:31;;;;;;;27.48;14.70;;;;;;;9.63;57.21;100079.44;4869332;29;20112;-73
2024/04/07 04:58:58;;;;;;;21.10;13.55;;;;;;;9.74;56.24;100113.19;4868614;29;20037;-73
2024/04/07 05:01:25;;;;;;;28.52;15.40;;;;;;;9.76;56.79;100112.31;4869287;29;20568;-73
2024/04/07 05:03:55;;;;;;;23.75;14.38;;;;;;;9.72;56.81;100102.78;4869872;29;20129;-74
2024/04/07 05:06:21;;;;;;;25.83;15.00;;;;;;;9.63;56.64;100108.84;4869736;29;20059;-74
2024/04/07 05:08:49;;;;;;;30.52;14.88;;;;;;;9.69;56.55;100117.53;4882545;29;20049;-73
2024/04/07 05:11:16;;;;;;;34.47;15.43;;;;;;;9.54;56.31;100092.41;4883965;29;20053;-73
2024/04/07 05:13:43;;;;;;;27.10;15.23;;;;;;;9.75;56.22;100117.53;4883959;29;20044;-74
2024/04/07 05:16:09;;;;;;;32.58;15.07;;;;;;;9.81;55.92;100114.94;4869666;29;20056;-76
2024/04/07 05:18:36;;;;;;;27.98;14.48;;;;;;;9.87;55.83;100114.91;4871379;29;20051;-76
2024/04/07 05:21:08;;;;;;;22.77;14.48;;;;;;;10.02;56.01;100113.19;4883805;29;20064;-75
2024/04/07 05:23:44;;;;;;;25.30;14.38;;;;;;;10.15;55.95;100108.81;4868687;29;20128;-75
2024/04/07 05:26:13;;;;;;;27.10;15.20;;;;;;;10.28;55.51;100120.03;4883944;29;20052;-74
2024/04/07 05:28:40;;;;;;;26.77;15.50;;;;;;;10.26;55.34;100117.44;4882646;29;20132;-76
2024/04/07 05:31:11;;;;;;;27.88;14.40;;;;;;;10.13;55.23;100119.22;4869570;29;20051;-76
2024/04/07 05:33:38;;;;;;;20.98;13.45;;;;;;;9.91;55.26;100114.03;4869596;29;20518;-73
2024/04/07 05:36:05;;;;;;;24.45;14.80;;;;;;;9.81;55.27;100120.13;4899224;29;20056;-72
2024/04/07 05:38:32;;;;;;;25.85;14.95;;;;;;;9.71;55.67;100126.19;4883049;29;20080;-73
2024/04/07 05:40:59;;;;;;;26.42;15.18;;;;;;;9.60;55.50;100121.84;4882677;29;20508;-75
2024/04/07 05:43:25;;;;;;;31.15;15.73;;;;;;;9.68;55.95;100115.78;4852394;29;20040;-74
2024/04/07 05:45:52;;;;;;;27.50;15.07;;;;;;;9.83;56.05;100120.13;4881427;29;20065;-77
2024/04/07 05:48:18;;;;;;;30.75;15.25;;;;;;;9.78;55.65;100108.00;4867776;29;20057;-72
2024/04/07 05:50:44;;;;;;;23.65;14.30;;;;;;;9.72;55.57;100094.13;4882527;29;20050;-72
2024/04/07 05:53:10;;;;;;;27.52;15.13;;;;;;;9.93;55.49;100119.25;4885503;29;20041;-71
2024/04/07 05:55:36;;;;;;;23.50;14.07;;;;;;;9.94;55.59;100131.38;4883187;29;20072;-73
2024/04/07 05:58:03;;;;;;;28.30;14.38;;;;;;;9.87;55.84;100125.31;4868766;29;20072;-72
2024/04/07 06:00:34;;;;;;;26.98;14.07;;;;;;;9.84;55.59;100125.31;4867764;29;20048;-76
2024/04/07 06:03:03;;;;;;;29.10;15.63;;;;;;;9.95;55.71;100140.91;4888702;29;20049;-76
2024/04/07 06:05:30;;;;;;;28.08;15.82;;;;;;;9.86;55.98;100118.38;4884200;29;20049;-77
2024/04/07 06:07:56;;;;;;;24.10;15.23;;;;;;;10.00;55.61;100122.72;4866277;29;20517;-72
2024/04/07 06:10:22;;;;;;;27.50;14.75;;;;;;;10.15;55.74;100130.47;4882110;29;20048;-72
2024/04/07 06:12:48;;;;;;;21.73;14.75;;;;;;;10.13;55.20;100126.16;4882674;29;20093;-77
2024/04/07 06:15:14;;;;;;;23.63;14.25;;;;;;;10.14;55.65;100118.34;4883125;29;20045;-75
2024/04/07 06:17:43;;;;;;;30.83;14.80;;;;;;;10.15;55.73;100117.47;4866929;29;20063;-75
2024/04/07 06:20:10;;;;;;;25.77;14.73;;;;;;;10.13;55.71;100124.41;4869311;29;20077;-75
2024/04/07 06:22:36;;;;;;;25.67;15.02;;;;;;;10.01;55.61;100107.09;4868247;29;20041;-75
2024/04/07 06:25:03;;;;;;;25.70;14.80;;;;;;;10.05;55.94;100118.34;4868060;29;20476;-76
2024/04/07 06:27:35;;;;;;;23.35;15.40;;;;;;;10.04;55.94;100107.09;4867302;29;20177;-74
2024/04/07 06:30:07;;;;;;;30.50;15.90;;;;;;;10.03;56.08;100104.50;4882327;29;20041;-71
2024/04/07 06:32:33;;;;;;;25.23;14.20;;;;;;;10.15;55.81;100114.03;4866218;29;20492;-71
2024/04/07 06:35:00;;;;;;;25.13;14.45;;;;;;;10.03;55.70;100096.72;4868429;29;20131;-74
2024/04/07 06:37:26;;;;;;;23.98;15.48;;;;;;;9.90;55.74;100078.53;4883299;29;20049;-75
2024/04/07 06:39:52;;;;;;;26.60;15.35;;;;;;;9.99;55.87;100081.97;4899277;29;20117;-74
2024/04/07 06:42:27;;;;;;;26.98;15.32;;;;;;;10.30;55.88;100100.09;4871104;29;20501;-73
2024/04/07 06:44:55;;;;;;;33.88;14.88;;;;;;;10.39;56.17;100087.94;4867248;29;20207;-74
2024/04/07 06:47:23;;;;;;;26.13;14.05;;;;;;;10.62;55.98;100089.59;4868042;29;20049;-74
2024/04/07 06:49:50;;;;;;;24.17;15.80;;;;;;;10.90;55.68;100101.63;4881597;29;20037;-73
2024/04/07 06:52:17;;;;;;;26.42;14.23;;;;;;;11.08;55.27;100122.34;4856052;29;20535;-75
2024/04/07 06:54:46;;;;;;;24.20;14.48;;;;;;;11.03;54.87;100099.84;4881994;29;20045;-73
2024/04/07 06:57:14;;;;;;;27.35;14.00;;;;;;;11.06;54.92;100094.56;4869324;29;20080;-73
2024/04/07 06:59:40;;;;;;;26.85;15.75;;;;;;;11.09;54.93;100100.66;4881227;29;20053;-72
2024/04/07 07:02:07;;;;;;;30.35;14.73;;;;;;;11.17;55.48;100099.72;4864834;29;20044;-71
2024/04/07 07:04:33;;;;;;;30.92;15.48;;;;;;;11.18;54.75;100089.31;4865735;29;20041;-71
2024/04/07 07:06:59;;;;;;;32.67;16.50;;;;;;;11.11;54.44;100074.59;4882318;29;20048;-72
2024/04/07 07:09:27;;;;;;;27.77;14.95;;;;;;;10.95;55.15;100071.22;4849999;29;20128;-80
2024/04/07 07:11:55;;;;;;;30.90;15.43;;;;;;;11.03;54.88;100084.22;4865744;29;20051;-71
2024/04/07 07:14:21;;;;;;;25.45;14.85;;;;;;;11.13;54.98;100106.69;4865644;29;20104;-75
2024/04/07 07:16:48;;;;;;;29.17;15.68;;;;;;;10.93;54.79;100088.56;4866102;29;20052;-69
2024/04/07 07:19:15;;;;;;;30.00;15.60;;;;;;;10.82;55.15;100088.63;4867101;29;20155;-71
2024/04/07 07:21:41;;;;;;;23.73;14.93;;;;;;;10.90;55.33;100107.69;4867490;29;20049;-71
2024/04/07 07:24:07;;;;;;;25.85;14.00;;;;;;;10.97;55.17;100118.94;4880673;29;20048;-71
2024/04/07 07:26:33;;;;;;;24.90;14.57;;;;;;;10.93;55.55;100105.06;4865682;29;20049;-71
2024/04/07 07:28:59;;;;;;;25.02;13.82;;;;;;;10.89;55.36;100097.31;4853573;29;20045;-71
2024/04/07 07:31:28;;;;;;;24.90;13.65;;;;;;;10.81;55.13;100090.38;4880863;29;20045;-68
2024/04/07 07:33:54;;;;;;;30.27;13.95;;;;;;;10.97;55.53;100124.13;4850673;29;20072;-72
2024/04/07 07:36:20;;;;;;;30.55;13.63;;;;;;;11.13;55.92;100133.63;4881433;29;20052;-70
2024/04/07 07:38:47;;;;;;;22.42;13.02;;;;;;;11.21;55.55;100122.28;4879551;29;20057;-69
2024/04/07 07:41:14;;;;;;;24.50;13.82;;;;;;;11.27;55.83;100114.41;4880937;29;20575;-71
2024/04/07 07:43:40;;;;;;;29.77;14.77;;;;;;;11.31;55.30;100118.75;4864639;29;20037;-68
2024/04/07 07:46:09;;;;;;;20.63;13.10;;;;;;;11.43;55.69;100126.47;4880611;29;20393;-69
2024/04/07 07:48:39;;;;;;;22.50;13.25;;;;;;;11.43;55.72;100121.25;4867249;29;20044;-72
2024/04/07 07:51:10;;;;;;;25.25;13.32;;;;;;;11.26;55.58;100113.53;4865898;29;20045;-69
2024/04/07 07:53:37;;;;;;;26.38;13.15;;;;;;;11.43;56.07;100136.88;4877274;29;20044;-69
2024/04/07 07:56:07;;;;;;;22.23;12.80;;;;;;;11.38;55.66;100127.38;4881718;29;21510;-68
2024/04/07 07:58:38;;;;;;;20.80;13.48;;;;;;;11.46;55.92;100141.22;4853976;29;20036;-69
2024/04/07 08:01:05;;;;;;;19.85;13.35;;;;;;;11.41;56.01;100136.03;4853391;29;20049;-70
2024/04/07 08:03:31;;;;;;;19.92;12.45;;;;;;;11.13;55.74;100111.91;4879766;29;20048;-69
2024/04/07 08:05:58;;;;;;;23.27;13.23;;;;;;;11.20;56.33;100126.63;4865796;29;20466;-70
2024/04/07 08:08:26;;;;;;;21.13;12.50;;;;;;;11.10;56.43;100117.13;4880554;29;20145;-70
2024/04/07 08:10:53;;;;;;;23.50;13.63;;;;;;;11.38;56.45;100159.50;4869085;29;20056;-69
2024/04/07 08:13:19;;;;;;;25.73;11.85;;;;;;;11.42;56.13;100161.22;4884786;29;20045;-69
2024/04/07 08:15:45;;;;;;;18.45;11.90;;;;;;;11.55;57.07;100166.34;4853255;29;20056;-72
2024/04/07 08:18:12;;;;;;;18.05;11.45;;;;;;;11.37;56.80;100136.91;4884017;29;20548;-67
2024/04/07 08:20:41;;;;;;;21.63;12.75;;;;;;;11.71;56.42;100175.78;4870133;29;20049;-69
2024/04/07 08:23:08;;;;;;;21.42;12.20;;;;;;;11.73;56.65;100163.59;4879952;29;20052;-69
2024/04/07 08:25:35;;;;;;;20.67;11.95;;;;;;;11.91;56.45;100153.91;4866303;29;20048;-69
2024/04/07 08:28:04;;;;;;;19.50;11.88;;;;;;;11.90;56.14;100157.38;4880050;29;20048;-69
2024/04/07 08:30:32;;;;;;;21.10;12.68;;;;;;;12.02;55.87;100170.38;4866576;29;20041;-70
2024/04/07 08:32:59;;;;;;;20.50;13.10;;;;;;;12.12;56.37;100170.25;4868635;29;20092;-70
2024/04/07 08:35:26;;;;;;;25.77;13.90;;;;;;;12.03;56.35;100137.31;4868072;29;20051;-71
2024/04/07 08:37:54;;;;;;;28.83;12.15;;;;;;;12.20;55.84;100137.16;4868778;29;20076;-70
2024/04/07 08:40:21;;;;;;;22.20;12.07;;;;;;;12.37;55.80;100139.56;4886851;29;20543;-71
2024/04/07 08:42:49;;;;;;;24.02;13.02;;;;;;;12.85;55.22;100172.09;4883797;29;20040;-70
2024/04/07 08:45:19;;;;;;;20.08;12.48;;;;;;;12.87;54.78;100136.38;4887176;29;20071;-70
2024/04/07 08:47:47;;;;;;;20.75;12.05;;;;;;;12.83;54.61;100130.34;4899002;29;20068;-69
2024/04/07 08:50:14;;;;;;;19.40;11.48;;;;;;;13.13;54.78;100141.22;4884578;29;20151;-72
2024/04/07 08:52:44;;;;;;;19.10;12.18;;;;;;;13.11;54.90;100112.53;4867985;29;20126;-71
2024/04/07 08:55:11;;;;;;;22.27;12.43;;;;;;;13.67;54.14;100161.41;4868561;29;20052;-74
2024/04/07 08:57:42;;;;;;;19.55;12.25;;;;;;;13.84;53.81;100152.41;4853800;29;20048;-72
2024/04/07 09:00:08;;;;;;;18.20;11.02;;;;;;;13.99;53.55;100114.66;4899143;29;20102;-73
2024/04/07 09:02:36;;;;;;;20.95;12.32;;;;;;;14.96;53.70;100160.81;4868633;29;20041;-76
2024/04/07 09:05:04;;;;;;;25.05;12.88;;;;;;;15.91;53.16;100131.53;4869641;29;20056;-66
2024/04/07 09:07:32;;;;;;;16.50;11.70;;;;;;;16.96;51.57;100111.16;4883457;29;20041;-69
2024/04/07 09:09:59;;;;;;;22.02;12.95;;;;;;;17.71;49.74;100094.75;4899152;29;21028;-71
2024/04/07 09:12:26;;;;;;;21.63;12.20;;;;;;;18.75;48.26;100088.44;4885240;29;20040;-70
2024/04/07 09:14:52;;;;;;;18.23;11.70;;;;;;;20.22;46.15;100101.84;4854196;29;20159;-69
2024/04/07 09:17:18;;;;;;;17.33;11.20;;;;;;;21.76;44.25;100116.72;4868723;29;20047;-68
2024/04/07 09:19:45;;;;;;;18.05;11.05;;;;;;;23.48;42.39;100082.81;4869952;29;20053;-72
2024/04/07 09:22:11;;;;;;;15.65;11.27;;;;;;;24.89;38.94;100072.47;4885768;29;20048;-72
2024/04/07 09:24:41;;;;;;;14.90;11.30;;;;;;;26.68;36.60;100087.97;4870839;29;20511;-72
2024/04/07 09:27:12;;;;;;;19.92;11.73;;;;;;;27.27;34.63;100105.06;4869652;29;20045;-74
2024/04/07 09:29:41;;;;;;;20.42;11.00;;;;;;;27.34;32.72;100060.91;4887052;29;20571;-73
2024/04/07 09:32:09;;;;;;;17.77;11.25;;;;;;;28.05;31.71;100092.09;4871781;29;20052;-70
2024/04/07 09:34:36;;;;;;;17.40;11.13;;;;;;;28.88;30.52;100104.41;4884483;29;20096;-69
2024/04/07 09:37:03;;;;;;;17.83;11.18;;;;;;;29.41;29.21;100084.91;4883703;29;20051;-70
2024/04/07 09:39:30;;;;;;;14.02;10.75;;;;;;;29.51;28.78;100091.22;4898095;29;20060;-68
2024/04/07 09:42:01;;;;;;;14.07;10.25;;;;;;;29.83;27.57;100109.06;4883851;29;20120;-71
2024/04/07 09:44:36;;;;;;;17.80;11.10;;;;;;;29.79;27.57;100110.31;4866778;29;20048;-68
2024/04/07 09:47:06;;;;;;;15.32;10.00;;;;;;;29.53;27.55;100118.75;4885631;29;20055;-68
2024/04/07 09:49:38;;;;;;;;;;;;;;;28.76;27.43;100123.19;4884629;29;20050;-75
2024/04/07 09:52:07;;;;;;;14.73;10.20;;;;;;;28.02;28.53;100126.25;4884633;29;19931;-75
2024/04/07 09:54:44;;;;;;;14.57;9.18;;;;;;;28.09;28.85;100098.06;4882762;29;20443;-69
2024/04/07 09:57:15;;;;;;;16.27;9.65;;;;;;;28.55;27.34;100078.41;4898122;29;20139;-68
2024/04/07 09:59:44;;;;;;;19.35;9.90;;;;;;;28.16;27.55;100075.25;4882274;29;20148;-69
2024/04/07 10:02:11;;;;;;;17.02;9.30;;;;;;;27.17;27.89;100101.41;4883072;29;20507;-68
2024/04/07 10:04:39;;;;;;;13.15;9.73;;;;;;;26.65;28.56;100096.19;4883008;29;20048;-71
2024/04/07 10:07:07;;;;;;;11.13;9.40;;;;;;;25.86;29.11;100118.50;4836334;29;20530;-67
2024/04/07 10:09:35;;;;;;;15.05;10.23;;;;;;;25.96;29.35;100081.41;4882119;29;20041;-69
2024/04/07 10:12:01;;;;;;;13.43;9.57;;;;;;;25.86;29.53;100112.28;4867174;29;20068;-69
2024/04/07 10:14:41;;;;;;;14.02;9.85;;;;;;;25.08;29.81;100113.84;4886243;29;20411;-71
2024/04/07 10:17:09;;;;;;;14.98;9.63;;;;;;;25.41;30.76;100125.94;4884839;29;20072;-69
2024/04/07 10:19:44;;;;;;;10.93;8.77;;;;;;;26.42;29.80;100101.34;4866675;29;20047;-70
2024/04/07 10:22:12;;;;;;;13.77;8.52;;;;;;;27.09;29.32;100103.78;4883653;29;20040;-68
2024/04/07 10:24:43;;;;;;;13.75;9.05;;;;;;;27.04;28.99;100110.28;4886282;29;20051;-69
2024/04/07 10:27:10;;;;;;;12.15;8.52;;;;;;;25.28;28.91;100053.97;4885203;29;20171;-69
2024/04/07 10:29:39;;;;;;;12.30;8.75;;;;;;;24.18;30.34;100114.09;4853689;29;20054;-70
2024/04/07 10:32:31;;;;;;;16.85;9.55;;;;;;;23.16;31.98;100094.31;4882522;29;20063;-70
2024/04/07 10:35:02;;;;;;;16.90;8.80;;;;;;;22.89;32.10;100128.53;4868754;29;20040;-69
2024/04/07 10:37:32;;;;;;;16.52;8.77;;;;;;;22.19;33.14;100098.63;4872272;29;20048;-72
2024/04/07 10:40:00;;;;;;;19.08;8.25;;;;;;;21.76;33.92;100087.59;4866354;29;20124;-70
2024/04/07 10:42:29;;;;;;;11.73;7.40;;;;;;;22.08;34.54;100100.97;4865733;29;20252;-69
2024/04/07 10:44:56;;;;;;;17.13;8.52;;;;;;;22.51;33.75;100098.72;4866464;29;20607;-69
2024/04/07 10:47:22;;;;;;;12.20;7.72;;;;;;;22.64;34.20;100084.78;4882187;29;20081;-69
2024/04/07 10:49:50;;;;;;;14.48;7.57;;;;;;;23.13;33.74;100126.34;4865227;29;20141;-69
2024/04/07 10:52:19;;;;;;;15.30;7.63;;;;;;;22.96;33.73;100114.00;4865420;29;20575;-70
2024/04/07 10:54:45;;;;;;;12.85;6.80;;;;;;;22.92;33.85;100097.41;4854001;29;20131;-71
2024/04/07 10:57:15;;;;;;;15.77;7.55;;;;;;;22.65;33.82;100089.16;4866208;29;20045;-69
2024/04/07 10:59:44;;;;;;;11.77;6.82;;;;;;;22.59;34.13;100121.34;4849343;29;20062;-70
2024/04/07 11:02:12;;;;;;;12.15;7.15;;;;;;;21.80;34.29;100062.69;4881422;29;20158;-68
2024/04/07 11:04:40;;;;;;;13.27;7.35;;;;;;;21.73;35.31;100124.84;4850616;29;20555;-70
2024/04/07 11:07:06;;;;;;;18.35;7.35;;;;;;;21.22;35.25;100107.84;4866215;29;20045;-69
2024/04/07 11:09:32;;;;;;;12.52;6.70;;;;;;;21.11;36.01;100125.16;4865556;29;20050;-67
2024/04/07 11:12:00;;;;;;;9.60;5.32;;;;;;;20.87;36.53;100093.66;4850944;29;20049;-70
2024/04/07 11:14:30;;;;;;;9.68;5.13;;;;;;;20.92;36.88;100084.59;4881915;29;20055;-68
2024/04/07 11:17:03;;;;;;;10.52;4.45;;;;;;;21.22;36.94;100113.13;4881536;29;20457;-68
2024/04/07 11:19:32;;;;;;;7.32;4.68;;;;;;;21.08;36.59;100078.56;4881836;29;21854;-68
2024/04/07 11:21:58;;;;;;;6.65;4.75;;;;;;;21.25;36.46;100092.75;4865656;29;20045;-69